Midland, Canada
Current Conditions -  °F | °C
As of 1:24 AM on Friday 31 Oct 2014 (Local Time) from CYQA Reporting Station
Light Rain Light Rain  
Wind Chill: 36°   Ceiling: 2200
Heat Index: 36°   Visibility: 9mi
Dew Point: 36°   Wind: 0mph
Humidity: 100%   Direction: NA
Pressure: 29.97"   Gusts: NA
Location:  44.75°N, 79.89°W
Report Text: CYQA 310524Z AUTO 00000KT 9SM -RA OVC022 02/02 A2997 RMK SLP159
Loading
Personal Weather Stations






























Interactive Weather Map
Tropical Storm Tracking
New forecast layout! Learn more

10-Day Weather Forecast

Advertisements
Track Severe Weather on mobile